Time;durP1;ratioP1;P1;durP2;ratioP2;P2;SDS_P1;SDS_P2;PMS_P1;PMS_P2;Temp;Humidity;BMP_temperature;BMP_pressure;BME280_temperature;BME280_humidity;BME280_pressure;Samples;Min_cycle;Max_cycle;Signal;HPM_P1;HPM_P2
2023/03/31 00:01:40;;;;;;;9.02;2.47;;;11.00;99.90;;;;;;5029014;28;20051;-74
2023/03/31 00:04:12;;;;;;;11.50;2.33;;;11.00;99.90;;;;;;5009980;28;20103;-74
2023/03/31 00:06:40;;;;;;;6.85;2.22;;;11.00;99.90;;;;;;4999412;28;20041;-74
2023/03/31 00:09:10;;;;;;;;;;;10.90;99.90;;;;;;5016954;28;20167;-73
2023/03/31 00:11:36;;;;;;;9.20;2.40;;;10.90;99.90;;;;;;5015303;28;19908;-73
2023/03/31 00:14:05;;;;;;;8.38;2.28;;;11.00;99.90;;;;;;5020536;28;20076;-73
2023/03/31 00:16:32;;;;;;;6.32;2.03;;;10.90;99.90;;;;;;5033116;28;20063;-73
2023/03/31 00:19:00;;;;;;;8.50;2.88;;;10.80;99.90;;;;;;5016501;28;20461;-73
2023/03/31 00:21:33;;;;;;;8.18;2.13;;;10.90;99.90;;;;;;5035773;28;20052;-73
2023/03/31 00:24:00;;;;;;;10.30;1.92;;;11.00;99.90;;;;;;5018944;28;20081;-73
2023/03/31 00:26:26;;;;;;;6.45;1.90;;;11.00;99.90;;;;;;5026882;28;20095;-73
2023/03/31 00:28:52;;;;;;;7.45;2.00;;;11.00;99.90;;;;;;4996190;28;20358;-73
2023/03/31 00:31:18;;;;;;;6.72;1.58;;;11.10;99.90;;;;;;5044691;28;20053;-72
2023/03/31 00:33:44;;;;;;;4.97;1.58;;;11.00;99.90;;;;;;5023007;28;20049;-73
2023/03/31 00:36:10;;;;;;;9.68;1.92;;;11.10;99.90;;;;;;4981367;28;20390;-72
2023/03/31 00:38:36;;;;;;;4.90;1.50;;;11.10;99.90;;;;;;5024365;28;20045;-73
2023/03/31 00:41:02;;;;;;;6.70;1.95;;;11.10;99.90;;;;;;5034380;28;20041;-73
2023/03/31 00:43:35;;;;;;;6.65;1.80;;;11.10;99.90;;;;;;5036792;28;20494;-72
2023/03/31 00:46:14;;;;;;;5.85;1.50;;;11.20;99.90;;;;;;4996187;28;20053;-73
2023/03/31 00:48:50;;;;;;;5.75;1.35;;;11.20;99.90;;;;;;5033648;28;20056;-73
2023/03/31 00:51:16;;;;;;;6.10;1.63;;;11.20;99.90;;;;;;5010555;28;20150;-73
2023/03/31 00:53:42;;;;;;;8.07;2.03;;;11.20;99.90;;;;;;5026888;28;20053;-73
2023/03/31 00:56:10;;;;;;;10.00;1.50;;;11.20;99.90;;;;;;5040189;28;20474;-73
2023/03/31 00:58:42;;;;;;;8.05;1.63;;;11.30;99.90;;;;;;5036787;28;20465;-73
2023/03/31 01:01:13;;;;;;;8.07;1.60;;;11.30;99.90;;;;;;5017319;28;20462;-73
2023/03/31 01:03:59;;;;;;;5.85;1.40;;;11.30;99.90;;;;;;5024477;28;20045;-73
2023/03/31 01:06:25;;;;;;;4.55;1.40;;;11.30;99.90;;;;;;5007791;28;20041;-73
2023/03/31 01:08:50;;;;;;;7.35;1.60;;;11.30;99.90;;;;;;4989220;28;20056;-73
2023/03/31 01:11:18;;;;;;;4.97;1.20;;;11.30;99.90;;;;;;5045989;28;20076;-73
2023/03/31 01:13:44;;;;;;;5.20;1.45;;;11.40;99.90;;;;;;5040294;28;20144;-73
2023/03/31 01:16:11;;;;;;;10.13;2.20;;;11.40;99.90;;;;;;5029466;28;20119;-73
2023/03/31 01:18:36;;;;;;;7.65;1.10;;;11.40;99.90;;;;;;5025806;28;20119;-73
2023/03/31 01:21:08;;;;;;;9.05;1.85;;;11.40;99.90;;;;;;5045797;28;20041;-73
2023/03/31 01:23:59;;;;;;;9.15;1.60;;;11.30;99.90;;;;;;5035857;28;20789;-73
2023/03/31 01:26:43;;;;;;;6.50;1.80;;;11.30;99.90;;;;;;5023916;28;20056;-73
2023/03/31 01:29:27;;;;;;;6.28;1.58;;;11.30;99.90;;;;;;5045489;28;20053;-73
2023/03/31 01:32:17;;;;;;;4.13;1.40;;;11.30;99.90;;;;;;5039380;28;20041;-73
2023/03/31 01:35:24;;;;;;;5.30;1.38;;;11.30;99.90;;;;;;5040268;28;20407;-73
2023/03/31 01:38:13;;;;;;;11.10;1.60;;;11.30;99.90;;;;;;5033232;28;20140;-73
2023/03/31 01:40:57;;;;;;;3.78;1.10;;;11.20;99.90;;;;;;5037341;28;20042;-72
2023/03/31 01:43:40;;;;;;;6.35;1.70;;;11.20;99.90;;;;;;5014254;28;20052;-72
2023/03/31 01:46:33;;;;;;;6.85;1.70;;;11.30;99.90;;;;;;5013019;28;20037;-72
2023/03/31 01:49:21;;;;;;;7.80;1.73;;;11.30;99.90;;;;;;5039328;28;20088;-73
2023/03/31 01:52:16;;;;;;;4.80;1.48;;;11.30;99.90;;;;;;5035296;28;20053;-73
2023/03/31 01:54:49;;;;;;;7.43;1.90;;;11.30;99.90;;;;;;5043753;28;20267;-72
2023/03/31 01:57:54;;;;;;;5.90;1.50;;;11.30;99.90;;;;;;5020679;28;20050;-73
2023/03/31 02:00:24;;;;;;;4.93;1.60;;;11.30;99.90;;;;;;5026201;28;20041;-73
2023/03/31 02:03:16;;;;;;;5.13;1.45;;;11.30;99.90;;;;;;5028092;28;20080;-72
2023/03/31 02:05:46;;;;;;;5.25;1.30;;;11.30;99.90;;;;;;5028240;28;20136;-72
2023/03/31 02:08:39;;;;;;;4.15;1.17;;;11.30;99.90;;;;;;5039258;28;20049;-72
2023/03/31 02:11:05;;;;;;;6.88;1.25;;;11.20;99.90;;;;;;5044144;28;20140;-73
2023/03/31 02:13:33;;;;;;;6.50;1.85;;;11.30;99.90;;;;;;5016726;28;20166;-72
2023/03/31 02:16:01;;;;;;;7.68;1.70;;;11.20;99.90;;;;;;5029282;28;20065;-72
2023/03/31 02:18:29;;;;;;;;;;;11.20;99.90;;;;;;5024465;28;20053;-72
2023/03/31 02:20:56;;;;;;;5.03;1.27;;;11.10;99.90;;;;;;5027599;28;20565;-72
2023/03/31 02:23:25;;;;;;;6.85;1.75;;;11.10;99.90;;;;;;5010131;28;20041;-72
2023/03/31 02:25:53;;;;;;;5.95;1.30;;;11.10;99.90;;;;;;5004829;28;20049;-71
2023/03/31 02:28:21;;;;;;;6.13;1.60;;;11.10;99.90;;;;;;5014412;28;20813;-71
2023/03/31 02:31:06;;;;;;;3.88;1.40;;;11.00;99.90;;;;;;5029597;28;20049;-72
2023/03/31 02:33:32;;;;;;;8.27;1.50;;;11.00;99.90;;;;;;5022718;28;20053;-71
2023/03/31 02:36:00;;;;;;;5.65;1.35;;;11.00;99.90;;;;;;5031047;28;20060;-72
2023/03/31 02:38:26;;;;;;;7.95;1.40;;;10.90;99.90;;;;;;5008717;28;20049;-72
2023/03/31 02:40:51;;;;;;;4.82;1.10;;;10.90;99.90;;;;;;5014704;28;20144;-72
2023/03/31 02:43:17;;;;;;;6.47;1.73;;;10.90;99.90;;;;;;5021452;28;20045;-72
2023/03/31 02:45:49;;;;;;;6.93;1.55;;;10.90;99.90;;;;;;5022035;28;20041;-72
2023/03/31 02:48:21;;;;;;;5.97;1.40;;;10.90;99.90;;;;;;5025083;28;20052;-72
2023/03/31 02:51:38;;;;;;;5.45;1.60;;;10.80;99.90;;;;;;5025592;28;20045;-72
2023/03/31 02:54:11;;;;;;;4.85;1.60;;;10.80;99.90;;;;;;5026569;28;20053;-72
2023/03/31 02:57:01;;;;;;;5.80;1.45;;;10.80;99.90;;;;;;5039315;28;20421;-72
2023/03/31 02:59:40;;;;;;;6.05;2.00;;;10.70;99.90;;;;;;5038794;28;20076;-72
2023/03/31 03:02:17;;;;;;;7.05;2.00;;;10.80;99.90;;;;;;5026385;28;20377;-72
2023/03/31 03:04:49;;;;;;;8.90;2.30;;;10.70;99.90;;;;;;5029455;28;20095;-72
2023/03/31 03:07:33;;;;;;;7.40;2.13;;;10.70;99.90;;;;;;5034322;28;20041;-73
2023/03/31 03:10:10;;;;;;;4.90;1.90;;;10.70;99.90;;;;;;5038357;28;20106;-72
2023/03/31 03:12:41;;;;;;;8.93;1.92;;;10.70;99.90;;;;;;5040886;28;20055;-72
2023/03/31 03:15:13;;;;;;;5.25;1.90;;;10.60;99.90;;;;;;5037999;28;20386;-72
2023/03/31 03:17:46;;;;;;;6.00;2.13;;;10.60;99.90;;;;;;5030754;28;20068;-72
2023/03/31 03:20:12;;;;;;;8.63;2.25;;;10.60;99.90;;;;;;5004336;28;20478;-72
2023/03/31 03:22:38;;;;;;;10.30;3.15;;;10.60;99.90;;;;;;5021580;28;20735;-72
2023/03/31 03:25:08;;;;;;;7.15;2.42;;;10.50;99.90;;;;;;5030239;28;20056;-72
2023/03/31 03:27:34;;;;;;;12.57;2.60;;;10.50;99.90;;;;;;5033557;28;20382;-72
2023/03/31 03:30:02;;;;;;;11.00;2.67;;;10.50;99.90;;;;;;5014513;28;20500;-72
2023/03/31 03:32:28;;;;;;;8.50;2.00;;;10.50;99.90;;;;;;5030409;28;20049;-72
2023/03/31 03:34:54;;;;;;;6.85;1.80;;;10.60;99.90;;;;;;5032197;28;20064;-72
2023/03/31 03:37:19;;;;;;;5.55;1.35;;;10.50;99.90;;;;;;5006353;28;20053;-72
2023/03/31 03:39:45;;;;;;;10.73;2.08;;;10.60;99.90;;;;;;5014134;28;20041;-72
2023/03/31 03:42:11;;;;;;;5.97;1.35;;;10.50;99.90;;;;;;5022521;28;20386;-72
2023/03/31 03:44:37;;;;;;;5.28;1.50;;;10.50;99.90;;;;;;5030952;28;20046;-72
2023/03/31 03:47:02;;;;;;;6.85;1.55;;;10.60;99.90;;;;;;5034889;28;20044;-72
2023/03/31 03:49:28;;;;;;;7.00;1.70;;;10.50;99.90;;;;;;5037550;28;20045;-72
2023/03/31 03:51:55;;;;;;;6.47;1.65;;;10.50;99.90;;;;;;5046748;28;20061;-72
2023/03/31 03:54:21;;;;;;;3.78;1.35;;;10.50;99.90;;;;;;4998791;28;20393;-73
2023/03/31 03:56:47;;;;;;;6.75;1.40;;;10.60;99.90;;;;;;5013610;28;20041;-73
2023/03/31 03:59:12;;;;;;;7.38;1.95;;;10.60;99.90;;;;;;5022031;28;20764;-73
2023/03/31 04:01:38;;;;;;;6.95;1.55;;;10.60;99.90;;;;;;5037247;28;20456;-73
2023/03/31 04:04:04;;;;;;;5.18;1.77;;;10.60;99.90;;;;;;5024536;28;20374;-73
2023/03/31 04:06:30;;;;;;;6.13;1.85;;;10.60;99.90;;;;;;5001475;28;20120;-73
2023/03/31 04:08:56;;;;;;;8.38;1.33;;;10.60;99.90;;;;;;5019470;28;20135;-73
2023/03/31 04:11:22;;;;;;;6.78;1.50;;;10.60;99.90;;;;;;5038305;28;20473;-73
2023/03/31 04:13:48;;;;;;;8.93;1.33;;;10.50;99.90;;;;;;5035979;28;20124;-73
2023/03/31 04:16:15;;;;;;;9.73;1.92;;;10.60;99.90;;;;;;5042384;28;20064;-73
2023/03/31 04:18:44;;;;;;;5.85;1.40;;;10.50;99.90;;;;;;5035722;28;20052;-73
2023/03/31 04:21:14;;;;;;;7.60;1.40;;;10.40;99.90;;;;;;5023520;28;20465;-73
2023/03/31 04:23:45;;;;;;;7.57;1.77;;;10.40;99.90;;;;;;5040901;28;20088;-73
2023/03/31 04:26:15;;;;;;;8.00;1.77;;;10.30;99.90;;;;;;5026464;28;20098;-73
2023/03/31 04:28:45;;;;;;;5.70;1.20;;;10.30;99.90;;;;;;5022352;28;20041;-72
2023/03/31 04:31:24;;;;;;;12.95;1.75;;;10.20;99.90;;;;;;5019560;28;20507;-73
2023/03/31 04:33:52;;;;;;;;;;;10.20;99.90;;;;;;5020838;28;20064;-73
2023/03/31 04:36:18;;;;;;;4.85;1.17;;;10.20;99.90;;;;;;5016800;28;20462;-73
2023/03/31 04:38:53;;;;;;;7.20;1.45;;;10.10;99.90;;;;;;5012034;28;20053;-73
2023/03/31 04:41:19;;;;;;;7.82;1.75;;;10.10;99.90;;;;;;5011832;28;20045;-71
2023/03/31 04:43:45;;;;;;;5.57;1.55;;;10.10;99.90;;;;;;5026471;28;20064;-70
2023/03/31 04:46:11;;;;;;;6.63;1.30;;;10.10;99.90;;;;;;5029466;28;20087;-70
2023/03/31 04:48:37;;;;;;;5.82;1.27;;;10.00;99.90;;;;;;5045230;28;20174;-71
2023/03/31 04:51:03;;;;;;;7.45;1.27;;;10.00;99.90;;;;;;5019255;28;20115;-71
2023/03/31 04:53:29;;;;;;;11.27;1.85;;;10.10;99.90;;;;;;5023167;28;20091;-71
2023/03/31 04:55:54;;;;;;;10.27;1.70;;;10.00;99.90;;;;;;5030192;28;20049;-74
2023/03/31 04:58:20;;;;;;;10.52;1.40;;;10.00;99.90;;;;;;5009456;28;20072;-73
2023/03/31 05:00:46;;;;;;;7.03;1.45;;;10.00;99.90;;;;;;5005064;28;20045;-72
2023/03/31 05:03:12;;;;;;;6.20;1.42;;;10.00;99.90;;;;;;5039640;28;20092;-73
2023/03/31 05:05:37;;;;;;;6.65;1.42;;;10.00;99.90;;;;;;5041561;28;20469;-72
2023/03/31 05:08:03;;;;;;;8.90;1.35;;;10.00;99.90;;;;;;5026173;28;20045;-72
2023/03/31 05:10:29;;;;;;;6.47;1.55;;;10.00;99.90;;;;;;5012610;28;20124;-73
2023/03/31 05:12:55;;;;;;;6.15;1.33;;;10.00;99.90;;;;;;5033991;28;20044;-72
2023/03/31 05:15:21;;;;;;;6.85;1.95;;;10.00;99.90;;;;;;5013133;28;20747;-73
2023/03/31 05:17:46;;;;;;;5.70;1.70;;;10.10;99.90;;;;;;5027559;28;20041;-73
2023/03/31 05:20:13;;;;;;;8.38;1.38;;;10.10;99.90;;;;;;5034343;28;20704;-72
2023/03/31 05:22:39;;;;;;;5.22;1.58;;;10.10;99.90;;;;;;5005099;28;20045;-72
2023/03/31 05:25:08;;;;;;;5.47;1.50;;;10.10;99.90;;;;;;5012207;28;20048;-72
2023/03/31 05:27:34;;;;;;;;;;;10.20;99.90;;;;;;5031913;28;20110;-72
2023/03/31 05:30:00;;;;;;;6.13;1.40;;;10.20;99.90;;;;;;5029549;28;19987;-73
2023/03/31 05:32:26;;;;;;;7.55;1.63;;;10.20;99.90;;;;;;5000705;28;20459;-72
2023/03/31 05:34:57;;;;;;;7.55;1.80;;;10.20;99.90;;;;;;5006516;28;20128;-72
2023/03/31 05:37:24;;;;;;;9.70;2.83;;;10.30;99.90;;;;;;5032665;28;20049;-73
2023/03/31 05:39:50;;;;;;;8.02;1.45;;;10.30;99.90;;;;;;5010926;28;20123;-73
2023/03/31 05:42:16;;;;;;;6.28;1.30;;;10.30;99.90;;;;;;5002618;28;20049;-72
2023/03/31 05:44:42;;;;;;;6.00;1.35;;;10.40;99.90;;;;;;5023457;28;20424;-72
2023/03/31 05:47:08;;;;;;;9.13;1.88;;;10.40;99.90;;;;;;5020078;28;20040;-72
2023/03/31 05:49:34;;;;;;;5.60;1.35;;;10.40;99.90;;;;;;5029435;28;20056;-72
2023/03/31 05:52:00;;;;;;;7.82;1.70;;;10.50;99.90;;;;;;5023192;28;20845;-72
2023/03/31 05:54:26;;;;;;;10.63;1.30;;;10.50;99.90;;;;;;5029839;28;20751;-72
2023/03/31 05:56:52;;;;;;;8.30;1.70;;;10.50;99.90;;;;;;5015718;28;20076;-71
2023/03/31 05:59:18;;;;;;;5.47;1.00;;;10.50;99.90;;;;;;5032183;28;20041;-72
2023/03/31 06:01:44;;;;;;;5.82;1.48;;;10.60;99.90;;;;;;5024207;28;20048;-71
2023/03/31 06:04:10;;;;;;;4.25;1.52;;;10.50;99.90;;;;;;5032506;28;20049;-72
2023/03/31 06:06:36;;;;;;;4.68;1.35;;;10.60;99.90;;;;;;5042259;28;20049;-72
2023/03/31 06:09:03;;;;;;;7.30;1.73;;;10.60;99.90;;;;;;5023374;28;20216;-72
2023/03/31 06:11:29;;;;;;;13.50;1.90;;;10.50;99.90;;;;;;5013223;28;20052;-72
2023/03/31 06:13:55;;;;;;;6.85;1.50;;;10.50;99.90;;;;;;5030152;28;20041;-72
2023/03/31 06:16:20;;;;;;;4.90;1.33;;;10.40;99.90;;;;;;5022041;28;20086;-71
2023/03/31 06:18:46;;;;;;;5.32;1.83;;;10.50;99.90;;;;;;5040499;28;20045;-72
2023/03/31 06:21:13;;;;;;;6.68;1.58;;;10.50;99.90;;;;;;5022352;28;20048;-71
2023/03/31 06:23:39;;;;;;;7.22;1.92;;;10.60;99.90;;;;;;5037251;28;21036;-72
2023/03/31 06:26:07;;;;;;;9.02;1.67;;;10.70;99.90;;;;;;5036740;28;20040;-70
2023/03/31 06:28:34;;;;;;;5.13;1.40;;;10.80;99.90;;;;;;5026710;28;20049;-71
2023/03/31 06:31:07;;;;;;;9.15;1.80;;;10.80;99.90;;;;;;4994626;28;20053;-71
2023/03/31 06:33:33;;;;;;;8.15;1.55;;;10.90;99.90;;;;;;5030008;28;20056;-71
2023/03/31 06:36:00;;;;;;;5.78;1.17;;;10.90;99.90;;;;;;5027867;28;20060;-72
2023/03/31 06:38:26;;;;;;;5.38;1.00;;;11.00;99.90;;;;;;5020588;28;20057;-72
2023/03/31 06:40:52;;;;;;;5.53;1.30;;;11.20;99.90;;;;;;5020426;28;20140;-72
2023/03/31 06:43:18;;;;;;;5.60;1.10;;;11.20;99.90;;;;;;5026433;28;20120;-71
2023/03/31 06:45:44;;;;;;;5.35;1.27;;;11.20;99.90;;;;;;5026658;28;20064;-71
2023/03/31 06:48:09;;;;;;;5.70;1.30;;;11.30;99.90;;;;;;5028148;28;20456;-71
2023/03/31 06:50:37;;;;;;;8.00;1.30;;;11.20;99.90;;;;;;5049726;28;20050;-71
2023/03/31 06:53:03;;;;;;;13.68;1.27;;;11.50;99.90;;;;;;5014512;28;20049;-71
2023/03/31 06:55:29;;;;;;;6.07;1.73;;;11.60;99.90;;;;;;5023804;28;20458;-71
2023/03/31 06:57:55;;;;;;;6.00;1.10;;;11.60;99.90;;;;;;5017486;28;20156;-71
2023/03/31 07:00:21;;;;;;;3.33;1.10;;;11.90;99.90;;;;;;5041543;28;20045;-71
2023/03/31 07:02:46;;;;;;;7.47;1.10;;;11.60;99.90;;;;;;5042343;28;20397;-71
2023/03/31 07:05:12;;;;;;;5.05;1.23;;;11.50;99.90;;;;;;5024182;28;20486;-71
2023/03/31 07:07:38;;;;;;;4.32;1.35;;;11.80;99.90;;;;;;5017263;28;20056;-71
2023/03/31 07:10:04;;;;;;;3.08;1.00;;;11.60;99.90;;;;;;5012919;28;20053;-71
2023/03/31 07:12:32;;;;;;;7.50;1.50;;;11.50;99.90;;;;;;4995732;28;20529;-71
2023/03/31 07:14:58;;;;;;;5.68;1.13;;;11.60;99.90;;;;;;5023092;28;20053;-71
2023/03/31 07:17:24;;;;;;;5.85;1.52;;;11.60;99.90;;;;;;5033145;28;20359;-71
2023/03/31 07:19:50;;;;;;;7.00;1.95;;;11.60;99.90;;;;;;4987786;28;20040;-71
2023/03/31 07:22:16;;;;;;;6.18;1.85;;;11.70;99.90;;;;;;5043549;28;20087;-71
2023/03/31 07:24:41;;;;;;;5.72;1.42;;;11.80;99.90;;;;;;5043727;28;20055;-71
2023/03/31 07:27:07;;;;;;;6.38;1.50;;;11.60;99.90;;;;;;5030924;28;20038;-71
2023/03/31 07:29:33;;;;;;;6.47;1.35;;;11.40;99.90;;;;;;5028371;28;20425;-71
2023/03/31 07:31:59;;;;;;;8.93;1.60;;;11.70;99.90;;;;;;5048586;28;20755;-71
2023/03/31 07:34:24;;;;;;;5.65;1.60;;;11.60;99.90;;;;;;5025833;28;20041;-71
2023/03/31 07:36:51;;;;;;;4.03;1.25;;;11.60;99.90;;;;;;5010137;28;20046;-71
2023/03/31 07:39:17;;;;;;;5.45;1.20;;;11.80;99.90;;;;;;5025570;28;20049;-71
2023/03/31 07:41:43;;;;;;;5.05;0.98;;;11.80;99.90;;;;;;5044318;28;20052;-72
2023/03/31 07:44:09;;;;;;;6.22;1.45;;;11.60;99.90;;;;;;5047397;28;20053;-71
2023/03/31 07:46:34;;;;;;;4.60;1.27;;;11.70;99.90;;;;;;5045973;28;20485;-72
2023/03/31 07:49:02;;;;;;;5.15;1.25;;;11.60;99.90;;;;;;5037121;28;20378;-72
2023/03/31 07:51:27;;;;;;;4.30;1.23;;;11.70;99.90;;;;;;5013327;28;20052;-71
2023/03/31 07:53:53;;;;;;;5.78;1.10;;;11.70;99.90;;;;;;5019764;28;20041;-71
2023/03/31 07:56:20;;;;;;;5.82;1.33;;;11.60;99.90;;;;;;5032424;28;20083;-71
2023/03/31 07:58:46;;;;;;;6.55;1.30;;;11.70;99.90;;;;;;5036328;28;20049;-71
2023/03/31 08:01:19;;;;;;;5.82;1.40;;;11.50;99.90;;;;;;5039070;28;20045;-71
2023/03/31 08:03:45;;;;;;;6.10;1.30;;;11.60;99.90;;;;;;5032985;28;20040;-71
2023/03/31 08:06:12;;;;;;;8.10;1.50;;;11.50;99.90;;;;;;5037161;28;20901;-71
2023/03/31 08:08:41;;;;;;;4.28;1.35;;;11.50;99.90;;;;;;5013062;28;20049;-71
2023/03/31 08:11:08;;;;;;;3.80;1.08;;;11.50;99.90;;;;;;5005390;28;20045;-72
2023/03/31 08:13:34;;;;;;;4.65;1.08;;;11.60;99.90;;;;;;4997437;28;20041;-71
2023/03/31 08:16:00;;;;;;;8.57;1.92;;;11.50;99.90;;;;;;5044045;28;20454;-72
2023/03/31 08:18:26;;;;;;;4.88;1.15;;;11.70;99.90;;;;;;5015043;28;20394;-73
2023/03/31 08:20:51;;;;;;;7.95;1.50;;;11.60;99.90;;;;;;5034100;28;20096;-73
2023/03/31 08:23:17;;;;;;;5.63;1.20;;;11.60;99.90;;;;;;5040331;28;20099;-73
2023/03/31 08:25:43;;;;;;;5.72;1.15;;;11.50;99.90;;;;;;5038659;28;20064;-72
2023/03/31 08:28:16;;;;;;;7.45;1.50;;;11.50;99.90;;;;;;5019878;28;20131;-72
2023/03/31 08:30:42;;;;;;;7.20;2.22;;;11.60;99.90;;;;;;5020477;28;20080;-73
2023/03/31 08:33:08;;;;;;;8.35;1.70;;;11.60;99.90;;;;;;5010863;28;20079;-73
2023/03/31 08:35:34;;;;;;;5.95;1.60;;;11.60;99.90;;;;;;5006164;28;20474;-75
2023/03/31 08:38:00;;;;;;;5.88;1.42;;;11.60;99.90;;;;;;5021805;28;20132;-74
2023/03/31 08:40:27;;;;;;;3.78;1.50;;;11.50;99.90;;;;;;5023241;28;20043;-74
2023/03/31 08:42:56;;;;;;;4.40;1.13;;;11.40;99.90;;;;;;5020783;28;20536;-75
2023/03/31 08:45:42;;;;;;;6.65;1.52;;;11.40;99.90;;;;;;5047475;28;20045;-75
2023/03/31 08:48:24;;;;;;;11.52;1.60;;;11.50;99.90;;;;;;5007714;28;20050;-75
2023/03/31 08:50:56;;;;;;;3.40;1.15;;;11.50;99.90;;;;;;5023090;28;20049;-75
2023/03/31 08:53:28;;;;;;;4.22;0.88;;;11.50;99.90;;;;;;5023913;28;20045;-76
2023/03/31 08:55:55;;;;;;;7.50;1.52;;;11.40;99.90;;;;;;5014033;28;20107;-75
2023/03/31 08:58:40;;;;;;;4.03;1.15;;;11.40;99.90;;;;;;5015370;28;20041;-76
2023/03/31 09:01:41;;;;;;;6.13;1.45;;;11.40;99.90;;;;;;5023256;28;20742;-75
2023/03/31 09:04:32;;;;;;;5.28;1.17;;;11.40;99.90;;;;;;5037754;28;20073;-74
2023/03/31 09:07:01;;;;;;;4.70;1.20;;;11.40;99.90;;;;;;5019853;28;20103;-74
2023/03/31 09:09:43;;;;;;;4.00;1.17;;;11.50;99.90;;;;;;5041855;28;20456;-75
2023/03/31 09:12:32;;;;;;;6.93;1.33;;;11.50;99.90;;;;;;5045295;28;20121;-74
2023/03/31 09:15:25;;;;;;;5.47;1.38;;;11.50;99.90;;;;;;5052695;28;20102;-74
2023/03/31 09:17:51;;;;;;;6.60;1.65;;;11.50;99.90;;;;;;5013730;28;20053;-74
2023/03/31 09:20:19;;;;;;;3.42;1.30;;;11.50;99.90;;;;;;5031277;28;20103;-74
2023/03/31 09:22:50;;;;;;;;;;;11.50;99.90;;;;;;5030511;28;20045;-73
2023/03/31 09:25:22;;;;;;;6.05;1.23;;;11.50;99.90;;;;;;5015821;28;19931;-74
2023/03/31 09:27:48;;;;;;;4.57;1.13;;;11.60;99.90;;;;;;5040437;28;20190;-74
2023/03/31 09:30:25;;;;;;;4.72;1.10;;;11.60;99.90;;;;;;5003045;28;20148;-75
2023/03/31 09:32:53;;;;;;;9.20;1.30;;;11.60;99.90;;;;;;5011573;28;20496;-75
2023/03/31 09:35:27;;;;;;;3.20;0.90;;;11.60;99.90;;;;;;5010038;28;20053;-74
2023/03/31 09:37:53;;;;;;;5.13;1.05;;;11.70;99.90;;;;;;5025124;28;20051;-75
2023/03/31 09:40:24;;;;;;;5.53;0.98;;;11.70;99.90;;;;;;4992252;28;20045;-74
2023/03/31 09:43:25;;;;;;;3.28;0.90;;;11.70;99.90;;;;;;5006866;28;20053;-74
2023/03/31 09:45:52;;;;;;;3.03;1.10;;;11.70;99.90;;;;;;5051166;28;20492;-75
2023/03/31 09:48:24;;;;;;;4.97;1.33;;;11.70;99.90;;;;;;5028783;28;20057;-74
2023/03/31 09:51:01;;;;;;;6.93;1.30;;;11.60;99.90;;;;;;5021262;28;20419;-75
2023/03/31 09:53:33;;;;;;;3.13;0.82;;;11.50;99.90;;;;;;5008951;28;20052;-75
2023/03/31 09:56:03;;;;;;;3.80;0.80;;;11.40;99.90;;;;;;5034925;28;20773;-75
2023/03/31 09:58:30;;;;;;;3.58;1.10;;;11.40;99.90;;;;;;5013297;28;20045;-75
2023/03/31 10:01:03;;;;;;;3.13;0.90;;;11.30;99.90;;;;;;5038554;28;20037;-76
2023/03/31 10:03:29;;;;;;;3.13;1.20;;;11.30;99.90;;;;;;5013447;28;20068;-76
2023/03/31 10:05:57;;;;;;;4.20;1.48;;;11.20;99.90;;;;;;5002385;28;20037;-75
2023/03/31 10:08:25;;;;;;;2.63;0.97;;;11.10;99.90;;;;;;5028966;28;20044;-75
2023/03/31 10:10:54;;;;;;;3.80;1.13;;;11.20;99.90;;;;;;5029915;28;20275;-75
2023/03/31 10:13:23;;;;;;;5.72;1.48;;;11.20;99.90;;;;;;5016044;28;20421;-75
2023/03/31 10:16:40;;;;;;;4.53;0.93;;;11.00;99.90;;;;;;5019612;28;20496;-76
2023/03/31 10:19:28;;;;;;;4.55;1.08;;;11.00;99.90;;;;;;5029074;28;20088;-74
2023/03/31 10:21:58;;;;;;;2.35;1.00;;;10.90;99.90;;;;;;5038937;28;20123;-75
2023/03/31 10:24:24;;;;;;;3.88;0.93;;;10.70;99.90;;;;;;5032660;28;20172;-76
2023/03/31 10:26:52;;;;;;;3.33;1.20;;;10.70;99.90;;;;;;5021417;28;20053;-75
2023/03/31 10:29:29;;;;;;;4.13;1.35;;;10.60;99.90;;;;;;5023452;28;20124;-76
2023/03/31 10:32:01;;;;;;;4.00;0.90;;;10.50;99.90;;;;;;5033035;28;20808;-75
2023/03/31 10:34:27;;;;;;;5.03;1.20;;;10.50;99.90;;;;;;5017730;28;20486;-75
2023/03/31 10:36:53;;;;;;;4.88;1.30;;;10.50;99.90;;;;;;5014880;28;20114;-75
2023/03/31 10:39:18;;;;;;;3.67;1.38;;;10.50;99.90;;;;;;5016698;28;20827;-75
2023/03/31 10:41:53;;;;;;;2.88;1.08;;;10.30;99.90;;;;;;4993647;28;20564;-75
2023/03/31 10:44:38;;;;;;;4.60;1.27;;;10.30;99.90;;;;;;5016195;28;20049;-75
2023/03/31 10:47:24;;;;;;;3.88;1.20;;;10.20;99.90;;;;;;5006906;28;20488;-75
2023/03/31 10:49:54;;;;;;;4.68;1.10;;;10.20;99.90;;;;;;5025333;28;20053;-75
2023/03/31 10:52:24;;;;;;;4.35;1.10;;;10.10;99.90;;;;;;5030939;28;20033;-74
2023/03/31 10:55:02;;;;;;;5.50;1.58;;;10.10;99.90;;;;;;5025640;28;20079;-75
2023/03/31 10:58:02;;;;;;;5.43;1.50;;;10.00;99.90;;;;;;5008125;28;20045;-75
2023/03/31 11:00:48;;;;;;;4.53;1.20;;;10.00;99.90;;;;;;5014794;28;20811;-75
2023/03/31 11:03:41;;;;;;;6.88;1.38;;;10.00;99.90;;;;;;5040776;28;20041;-75
2023/03/31 11:06:07;;;;;;;5.65;1.60;;;9.90;99.90;;;;;;5030162;28;20103;-75
2023/03/31 11:08:42;;;;;;;3.15;1.20;;;9.90;99.90;;;;;;5049866;28;20053;-75
2023/03/31 11:12:01;;;;;;;5.53;1.27;;;9.90;99.90;;;;;;5011693;28;20473;-75
2023/03/31 11:14:27;;;;;;;5.13;1.52;;;9.80;99.90;;;;;;5018117;28;20045;-74
2023/03/31 11:17:26;;;;;;;4.05;1.13;;;9.80;99.90;;;;;;5046862;28;20151;-74
2023/03/31 11:19:55;;;;;;;2.65;1.02;;;9.80;99.90;;;;;;5039196;28;20826;-75
2023/03/31 11:22:43;;;;;;;8.45;1.42;;;9.90;99.90;;;;;;5042989;28;20037;-75
2023/03/31 11:25:30;;;;;;;4.30;1.42;;;9.80;99.90;;;;;;5038053;28;20065;-74
2023/03/31 11:28:19;;;;;;;5.07;1.60;;;9.90;99.90;;;;;;5029811;28;20048;-75
2023/03/31 11:31:01;;;;;;;6.68;1.42;;;9.90;99.90;;;;;;5017085;28;20046;-75
2023/03/31 11:33:44;;;;;;;5.30;1.50;;;9.90;99.90;;;;;;5043273;28;20048;-75
2023/03/31 11:36:35;;;;;;;5.07;1.45;;;9.90;99.90;;;;;;5039817;28;20053;-75
2023/03/31 11:39:13;;;;;;;4.95;1.30;;;9.90;99.90;;;;;;5042724;28;20056;-75
2023/03/31 11:41:49;;;;;;;5.25;1.20;;;9.80;99.90;;;;;;5038011;28;20033;-75
2023/03/31 11:44:16;;;;;;;5.05;1.30;;;9.80;99.90;;;;;;5022703;28;20041;-76
2023/03/31 11:46:53;;;;;;;4.00;1.30;;;9.90;99.90;;;;;;5022655;28;20037;-76
2023/03/31 11:49:27;;;;;;;2.50;1.00;;;9.90;99.90;;;;;;5046603;28;20204;-75
2023/03/31 11:51:58;;;;;;;5.38;1.30;;;9.90;99.90;;;;;;5009344;28;20750;-76
2023/03/31 11:54:30;;;;;;;4.13;1.58;;;9.90;99.90;;;;;;5039436;28;20055;-76
2023/03/31 11:56:56;;;;;;;4.70;1.13;;;10.00;99.90;;;;;;5038174;28;20080;-76
2023/03/31 11:59:21;;;;;;;3.53;1.38;;;9.90;99.90;;;;;;5008227;28;20049;-76
2023/03/31 12:02:01;;;;;;;3.72;1.33;;;10.00;99.90;;;;;;5039604;28;20168;-75
2023/03/31 12:04:33;;;;;;;2.83;1.25;;;10.00;99.90;;;;;;5025071;28;20037;-75
2023/03/31 12:07:28;;;;;;;3.25;1.27;;;10.00;99.90;;;;;;5024505;28;20472;-76
2023/03/31 12:10:06;;;;;;;2.72;1.25;;;10.00;99.90;;;;;;5043398;28;20071;-75
2023/03/31 12:12:41;;;;;;;4.43;1.50;;;9.90;99.90;;;;;;5044889;28;20060;-75
2023/03/31 12:15:36;;;;;;;3.60;1.50;;;9.90;99.90;;;;;;5002770;28;20139;-75
2023/03/31 12:18:07;;;;;;;3.92;1.45;;;10.10;99.90;;;;;;5039107;28;20083;-76
2023/03/31 12:20:36;;;;;;;2.88;1.35;;;10.10;99.90;;;;;;5002760;28;20041;-75
2023/03/31 12:23:03;;;;;;;3.60;1.48;;;10.10;99.90;;;;;;5032001;28;20088;-75
2023/03/31 12:25:51;;;;;;;4.40;1.70;;;10.20;99.90;;;;;;5047058;28;20047;-75
2023/03/31 12:28:17;;;;;;;;;;;10.20;99.90;;;;;;5026216;28;20049;-75
2023/03/31 12:30:44;;;;;;;5.32;1.95;;;10.30;99.90;;;;;;5021194;28;20356;-75
2023/03/31 12:33:24;;;;;;;4.50;2.05;;;10.10;99.90;;;;;;5032176;28;20059;-75
2023/03/31 12:35:56;;;;;;;4.78;1.88;;;10.20;99.90;;;;;;5020738;28;20068;-75
2023/03/31 12:39:04;;;;;;;4.55;1.58;;;10.30;99.90;;;;;;5042250;28;20102;-75
2023/03/31 12:41:52;;;;;;;3.03;1.33;;;10.30;99.90;;;;;;5039362;28;20056;-75
2023/03/31 12:44:39;;;;;;;5.00;1.58;;;10.30;99.90;;;;;;5031152;28;20069;-75
2023/03/31 12:47:39;;;;;;;4.60;1.25;;;10.40;99.90;;;;;;5033338;28;20040;-75
2023/03/31 12:50:15;;;;;;;3.30;1.17;;;10.60;99.90;;;;;;5032229;28;20056;-75
2023/03/31 12:52:57;;;;;;;3.50;1.35;;;10.60;99.90;;;;;;5016227;28;20150;-75
2023/03/31 12:55:28;;;;;;;3.35;1.35;;;10.70;99.90;;;;;;5046344;28;20099;-75
2023/03/31 12:58:28;;;;;;;6.28;1.70;;;10.80;99.90;;;;;;5046852;28;20055;-75
2023/03/31 13:01:24;;;;;;;2.00;0.88;;;10.80;99.90;;;;;;5044312;28;20408;-75
2023/03/31 13:04:16;;;;;;;2.78;1.45;;;10.90;99.90;;;;;;5043001;28;20136;-76
2023/03/31 13:06:42;;;;;;;3.70;1.50;;;10.90;99.90;;;;;;5035756;28;20358;-75
2023/03/31 13:09:14;;;;;;;2.72;1.40;;;10.90;99.90;;;;;;5033859;28;20044;-75
2023/03/31 13:11:43;;;;;;;3.47;1.00;;;11.00;99.90;;;;;;5040986;28;20050;-76
2023/03/31 13:14:18;;;;;;;3.05;1.10;;;11.10;99.90;;;;;;5029970;28;20095;-76